createdAt,value
2022-11-24T00:00:17.036Z,4.54
2022-11-24T00:01:16.592Z,4.54
2022-11-24T00:02:17.211Z,4.54
2022-11-24T00:03:17.157Z,4.55
2022-11-24T00:04:16.940Z,4.53
2022-11-24T00:05:16.420Z,4.53
2022-11-24T00:06:16.910Z,4.54
2022-11-24T00:07:16.416Z,4.54
2022-11-24T00:08:16.940Z,4.58
2022-11-24T00:09:16.465Z,4.60
2022-11-24T00:10:16.995Z,4.63
2022-11-24T00:11:16.455Z,4.64
2022-11-24T00:12:17.205Z,4.64
2022-11-24T00:13:16.693Z,4.64
2022-11-24T00:14:17.176Z,4.63
2022-11-24T00:15:16.660Z,4.67
2022-11-24T00:16:17.203Z,4.68
2022-11-24T00:17:16.779Z,4.68
2022-11-24T00:18:17.262Z,4.68
2022-11-24T00:19:19.699Z,4.68
2022-11-24T00:20:16.479Z,4.69
2022-11-24T00:21:16.960Z,4.69
2022-11-24T00:22:16.728Z,4.71
2022-11-24T00:23:17.236Z,4.71
2022-11-24T00:24:16.714Z,4.69
2022-11-24T00:25:17.221Z,4.68
2022-11-24T00:26:16.730Z,4.71
2022-11-24T00:27:17.212Z,4.71
2022-11-24T00:28:16.700Z,4.69
2022-11-24T00:29:17.175Z,4.72
2022-11-24T00:30:16.668Z,4.69
2022-11-24T00:31:17.709Z,4.71
2022-11-24T00:32:16.550Z,4.71
2022-11-24T00:33:17.016Z,4.72
2022-11-24T00:34:16.491Z,4.71
2022-11-24T00:35:16.971Z,4.75
2022-11-24T00:36:16.488Z,4.72
2022-11-24T00:37:17.003Z,4.74
2022-11-24T00:38:16.481Z,4.78
2022-11-24T00:39:17.007Z,4.79
2022-11-24T00:40:16.509Z,4.84
2022-11-24T00:41:16.988Z,4.86
2022-11-24T00:42:16.560Z,4.86
2022-11-24T00:43:17.025Z,4.91
2022-11-24T00:44:16.490Z,4.92
2022-11-24T00:45:16.969Z,4.92
2022-11-24T00:46:16.533Z,4.92
2022-11-24T00:47:17.268Z,4.93
2022-11-24T00:48:16.906Z,4.91
2022-11-24T00:49:16.419Z,4.91
2022-11-24T00:50:16.920Z,4.96
2022-11-24T00:51:16.413Z,4.98
2022-11-24T00:52:17.289Z,4.99
2022-11-24T00:53:16.750Z,5.03
2022-11-24T00:54:17.282Z,5.10
2022-11-24T00:55:16.743Z,5.16
2022-11-24T00:56:17.279Z,5.16
2022-11-24T00:57:16.748Z,5.17
2022-11-24T00:58:17.244Z,5.28
2022-11-24T00:59:16.707Z,5.26
2022-11-24T01:00:17.187Z,5.39
2022-11-24T01:01:16.720Z,5.39
2022-11-24T01:02:16.561Z,5.39
2022-11-24T01:03:17.193Z,5.38
2022-11-24T01:04:16.690Z,5.42
2022-11-24T01:05:17.184Z,5.43
2022-11-24T01:06:16.678Z,5.52
2022-11-24T01:07:17.171Z,5.53
2022-11-24T01:08:16.796Z,5.52
2022-11-24T01:09:17.279Z,5.52
2022-11-24T01:10:16.781Z,5.59
2022-11-24T01:11:17.301Z,5.70
2022-11-24T01:12:16.530Z,5.73
2022-11-24T01:13:17.008Z,5.76
2022-11-24T01:14:16.492Z,5.79
2022-11-24T01:15:16.962Z,5.77
2022-11-24T01:16:16.506Z,5.83
2022-11-24T01:17:17.095Z,5.79
2022-11-24T01:18:16.588Z,5.77
2022-11-24T01:19:17.081Z,5.82
2022-11-24T01:20:16.557Z,5.77
2022-11-24T01:21:17.025Z,5.76
2022-11-24T01:22:16.934Z,5.79
2022-11-24T01:23:16.427Z,5.79
2022-11-24T01:24:16.914Z,5.83
2022-11-24T01:25:16.424Z,5.83
2022-11-24T01:26:16.913Z,5.85
2022-11-24T01:27:16.387Z,5.82
2022-11-24T01:28:16.837Z,5.80
2022-11-24T01:29:16.315Z,5.79
2022-11-24T01:30:16.767Z,5.83
2022-11-24T01:31:17.298Z,5.90
2022-11-24T01:32:17.064Z,5.92
2022-11-24T01:33:16.535Z,5.92
2022-11-24T01:34:17.086Z,5.90
2022-11-24T01:35:16.563Z,5.92
2022-11-24T01:36:17.056Z,5.90
2022-11-24T01:37:16.548Z,5.93
2022-11-24T01:38:17.030Z,5.94
2022-11-24T01:39:16.522Z,5.94
2022-11-24T01:40:16.992Z,5.94
2022-11-24T01:41:16.467Z,5.96
2022-11-24T01:42:17.250Z,5.98
2022-11-24T01:43:16.717Z,6.00
2022-11-24T01:44:17.191Z,5.96
2022-11-24T01:45:16.657Z,5.96
2022-11-24T01:46:17.235Z,5.97
2022-11-24T01:47:16.805Z,5.98
2022-11-24T01:48:17.311Z,5.98
2022-11-24T01:49:17.200Z,5.98
2022-11-24T01:50:16.692Z,5.98
2022-11-24T01:51:17.197Z,6.00
2022-11-24T01:52:16.352Z,6.00
2022-11-24T01:53:16.826Z,6.00
2022-11-24T01:54:16.295Z,6.07
2022-11-24T01:55:16.763Z,6.04
2022-11-24T01:56:17.236Z,6.05
2022-11-24T01:57:16.703Z,6.08
2022-11-24T01:58:17.199Z,6.11
2022-11-24T01:59:16.688Z,6.08
2022-11-24T02:00:17.179Z,6.06
2022-11-24T02:01:16.724Z,6.02
2022-11-24T02:02:16.987Z,6.08
2022-11-24T02:03:16.550Z,6.05
2022-11-24T02:04:17.024Z,6.03
2022-11-24T02:05:16.509Z,6.00
2022-11-24T02:06:16.996Z,5.99
2022-11-24T02:07:16.579Z,5.93
2022-11-24T02:08:17.126Z,5.98
2022-11-24T02:09:16.575Z,5.98
2022-11-24T02:10:17.117Z,5.92
2022-11-24T02:11:16.575Z,5.91
2022-11-24T02:12:16.990Z,5.91
2022-11-24T02:13:16.481Z,5.88
2022-11-24T02:14:16.962Z,5.89
2022-11-24T02:15:16.457Z,5.89
2022-11-24T02:16:17.008Z,5.86
2022-11-24T02:17:16.666Z,5.88
2022-11-24T02:18:17.163Z,5.84
2022-11-24T02:19:16.631Z,5.82
2022-11-24T02:20:17.176Z,5.84
2022-11-24T02:21:16.656Z,5.81
2022-11-24T02:22:16.435Z,5.82
2022-11-24T02:23:16.919Z,5.82
2022-11-24T02:24:16.392Z,5.78
2022-11-24T02:25:16.851Z,5.82
2022-11-24T02:26:16.322Z,5.78
2022-11-24T02:27:16.821Z,5.79
2022-11-24T02:28:16.319Z,5.75
2022-11-24T02:29:16.926Z,5.75
2022-11-24T02:30:16.411Z,5.74
2022-11-24T02:31:16.992Z,5.71
2022-11-24T02:32:16.638Z,5.75
2022-11-24T02:33:17.139Z,5.71
2022-11-24T02:34:16.683Z,5.68
2022-11-24T02:35:17.195Z,5.67
2022-11-24T02:36:16.662Z,5.71
2022-11-24T02:37:17.140Z,5.68
2022-11-24T02:38:16.603Z,5.64
2022-11-24T02:39:17.082Z,5.67
2022-11-24T02:40:16.562Z,5.67
2022-11-24T02:41:17.047Z,5.68
2022-11-24T02:42:16.546Z,5.75
2022-11-24T02:43:17.036Z,5.72
2022-11-24T02:44:16.528Z,5.67
2022-11-24T02:45:17.000Z,5.67
2022-11-24T02:46:16.553Z,5.65
2022-11-24T02:47:17.206Z,5.68
2022-11-24T02:48:16.696Z,5.68
2022-11-24T02:49:17.188Z,5.64
2022-11-24T02:50:16.678Z,5.61
2022-11-24T02:51:17.198Z,5.62
2022-11-24T02:52:17.058Z,5.60
2022-11-24T02:53:16.539Z,5.65
2022-11-24T02:54:16.994Z,5.67
2022-11-24T02:55:16.450Z,5.71
2022-11-24T02:56:16.947Z,5.67
2022-11-24T02:57:16.423Z,5.65
2022-11-24T02:58:16.925Z,5.64
2022-11-24T02:59:16.404Z,5.60
2022-11-24T03:00:16.902Z,5.57
2022-11-24T03:01:16.423Z,5.54
2022-11-24T03:02:17.243Z,5.52
2022-11-24T03:03:16.805Z,5.54
2022-11-24T03:04:17.276Z,5.52
2022-11-24T03:05:16.787Z,5.50
2022-11-24T03:06:17.281Z,5.44
2022-11-24T03:07:16.796Z,5.44
2022-11-24T03:08:16.399Z,5.43
2022-11-24T03:09:16.903Z,5.44
2022-11-24T03:10:16.381Z,5.40
2022-11-24T03:11:16.910Z,5.43
2022-11-24T03:12:16.416Z,5.45
2022-11-24T03:13:16.884Z,5.50
2022-11-24T03:14:16.397Z,5.54
2022-11-24T03:15:16.912Z,5.60
2022-11-24T03:16:16.442Z,5.55
2022-11-24T03:17:17.014Z,5.58
2022-11-24T03:18:16.502Z,5.61
2022-11-24T03:19:16.979Z,5.62
2022-11-24T03:20:16.483Z,5.64
2022-11-24T03:21:16.944Z,5.67
2022-11-24T03:22:16.824Z,5.68
2022-11-24T03:23:17.294Z,5.71
2022-11-24T03:24:16.856Z,5.70
2022-11-24T03:25:16.374Z,5.54
2022-11-24T03:26:16.856Z,5.55
2022-11-24T03:27:16.355Z,5.54
2022-11-24T03:28:16.845Z,5.58
2022-11-24T03:29:16.334Z,5.65
2022-11-24T03:30:16.821Z,5.61
2022-11-24T03:31:16.376Z,5.40
2022-11-24T03:32:17.271Z,5.38
2022-11-24T03:33:16.740Z,5.43
2022-11-24T03:34:17.246Z,5.43
2022-11-24T03:35:16.732Z,5.44
2022-11-24T03:36:17.243Z,5.41
2022-11-24T03:37:16.745Z,5.33
2022-11-24T03:38:17.227Z,5.27
2022-11-24T03:39:16.718Z,5.31
2022-11-24T03:40:17.208Z,5.31
2022-11-24T03:41:16.672Z,5.26
2022-11-24T03:42:16.932Z,5.20
2022-11-24T03:43:16.450Z,5.17
2022-11-24T03:44:16.955Z,5.17
2022-11-24T03:45:38.436Z,5.23
2022-11-24T03:46:16.993Z,5.19
2022-11-24T03:47:16.553Z,5.10
2022-11-24T03:48:17.040Z,5.09
2022-11-24T03:49:16.501Z,5.12
2022-11-24T03:50:16.974Z,5.12
2022-11-24T03:51:16.568Z,5.17
2022-11-24T03:52:17.173Z,5.24
2022-11-24T03:53:16.651Z,5.26
2022-11-24T03:54:17.140Z,5.24
2022-11-24T03:55:16.633Z,5.20
2022-11-24T03:56:17.167Z,5.33
2022-11-24T03:57:16.666Z,5.34
2022-11-24T03:58:17.127Z,5.34
2022-11-24T03:59:16.613Z,5.44
2022-11-24T04:00:17.091Z,5.50
2022-11-24T04:01:16.684Z,5.35
2022-11-24T04:02:16.386Z,5.30
2022-11-24T04:03:16.889Z,5.12
2022-11-24T04:04:16.371Z,5.20
2022-11-24T04:05:16.850Z,5.19
2022-11-24T04:06:16.345Z,5.17
2022-11-24T04:07:16.935Z,5.26
2022-11-24T04:08:16.489Z,5.30
2022-11-24T04:09:16.955Z,5.30
2022-11-24T04:10:16.429Z,5.30
2022-11-24T04:11:16.896Z,5.48
2022-11-24T04:12:17.250Z,5.55
2022-11-24T04:13:16.725Z,5.57
2022-11-24T04:14:17.210Z,5.64
2022-11-24T04:15:16.683Z,5.68
2022-11-24T04:16:17.251Z,5.67
2022-11-24T04:17:16.794Z,5.58
2022-11-24T04:18:17.272Z,5.51
2022-11-24T04:19:17.215Z,5.44
2022-11-24T04:20:16.740Z,5.40
2022-11-24T04:21:17.244Z,5.41
2022-11-24T04:22:16.304Z,5.60
2022-11-24T04:23:16.801Z,5.55
2022-11-24T04:24:17.285Z,5.54
2022-11-24T04:25:16.773Z,5.71
2022-11-24T04:26:17.250Z,5.71
2022-11-24T04:27:16.717Z,5.72
2022-11-24T04:28:17.192Z,5.82
2022-11-24T04:29:16.682Z,5.72
2022-11-24T04:30:17.185Z,5.75
2022-11-24T04:31:16.752Z,5.86
2022-11-24T04:32:16.842Z,5.68
2022-11-24T04:33:16.322Z,5.72
2022-11-24T04:34:16.834Z,5.88
2022-11-24T04:35:16.324Z,5.91
2022-11-24T04:36:16.844Z,5.70
2022-11-24T04:37:16.323Z,5.77
2022-11-24T04:39:20.184Z,5.78
2022-11-24T04:39:20.562Z,5.88
2022-11-24T04:40:17.328Z,5.84
2022-11-24T04:41:16.850Z,5.86
2022-11-24T04:42:16.440Z,5.93
2022-11-24T04:43:16.907Z,5.89
2022-11-24T04:44:16.378Z,5.77
2022-11-24T04:45:16.878Z,5.71
2022-11-24T04:46:16.375Z,5.81
2022-11-24T04:47:16.945Z,5.92
2022-11-24T04:48:16.417Z,5.99
2022-11-24T04:49:16.896Z,5.98
2022-11-24T04:50:16.383Z,6.09
2022-11-24T04:51:16.917Z,6.28
2022-11-24T04:52:16.350Z,6.28
2022-11-24T04:53:16.873Z,6.29
2022-11-24T04:54:16.380Z,6.33
2022-11-24T04:55:16.895Z,6.31
2022-11-24T04:56:16.404Z,6.38
2022-11-24T04:57:16.882Z,6.45
2022-11-24T04:58:16.373Z,6.45
2022-11-24T04:59:16.837Z,6.49
2022-11-24T05:00:16.319Z,6.52
2022-11-24T05:01:16.847Z,6.50
2022-11-24T05:02:16.526Z,6.49
2022-11-24T05:03:17.015Z,6.50
2022-11-24T05:04:16.548Z,6.53
2022-11-24T05:05:17.165Z,6.56
2022-11-24T05:06:16.655Z,6.57
2022-11-24T05:07:18.954Z,6.61
2022-11-24T05:08:17.038Z,6.61
2022-11-24T05:09:16.569Z,6.63
2022-11-24T05:10:17.035Z,6.65
2022-11-24T05:11:16.536Z,6.63
2022-11-24T05:12:17.032Z,6.67
2022-11-24T05:13:16.514Z,6.76
2022-11-24T05:14:16.978Z,6.77
2022-11-24T05:15:16.460Z,6.77
2022-11-24T05:16:17.067Z,6.84
2022-11-24T05:17:16.652Z,6.86
2022-11-24T05:18:17.147Z,6.91
2022-11-24T05:19:16.748Z,6.95
2022-11-24T05:20:17.241Z,7.00
2022-11-24T05:21:16.737Z,6.98
2022-11-24T05:22:16.986Z,7.01
2022-11-24T05:23:16.478Z,7.04
2022-11-24T05:24:16.961Z,7.07
2022-11-24T05:25:16.505Z,7.08
2022-11-24T05:26:16.986Z,7.07
2022-11-24T05:27:16.550Z,7.10
2022-11-24T05:28:17.013Z,7.08
2022-11-24T05:29:16.492Z,7.11
2022-11-24T05:30:16.992Z,7.10
2022-11-24T05:31:16.506Z,7.07
2022-11-24T05:32:17.126Z,7.07
2022-11-24T05:33:16.612Z,7.11
2022-11-24T05:34:17.086Z,7.12
2022-11-24T05:35:16.557Z,7.14
2022-11-24T05:36:17.073Z,7.14
2022-11-24T05:37:16.560Z,7.14
2022-11-24T05:38:17.086Z,7.11
2022-11-24T05:39:16.548Z,7.12
2022-11-24T05:40:17.020Z,7.11
2022-11-24T05:41:16.496Z,7.12
2022-11-24T05:42:16.460Z,7.15
2022-11-24T05:43:16.926Z,7.14
2022-11-24T05:44:16.443Z,7.11
2022-11-24T05:45:16.927Z,7.11
2022-11-24T05:46:16.470Z,7.08
2022-11-24T05:47:17.066Z,7.08
2022-11-24T05:48:16.611Z,7.05
2022-11-24T05:49:17.142Z,7.04
2022-11-24T05:50:16.670Z,7.02
2022-11-24T05:51:17.174Z,6.89
2022-11-24T05:52:16.325Z,6.84
2022-11-24T05:53:16.806Z,6.85
2022-11-24T05:54:17.290Z,6.87
2022-11-24T05:55:16.776Z,6.76
2022-11-24T05:56:17.250Z,6.79
2022-11-24T05:57:16.726Z,6.79
2022-11-24T05:58:17.194Z,6.79
2022-11-24T05:59:16.668Z,6.72
2022-11-24T06:00:17.152Z,6.67
2022-11-24T06:01:16.650Z,6.55
2022-11-24T06:02:17.058Z,6.52
2022-11-24T06:03:16.912Z,6.55
2022-11-24T06:04:16.546Z,6.49
2022-11-24T06:05:17.031Z,6.48
2022-11-24T06:06:16.534Z,6.45
2022-11-24T06:07:17.083Z,6.42
2022-11-24T06:08:16.724Z,6.41
2022-11-24T06:09:17.217Z,6.44
2022-11-24T06:10:16.680Z,6.34
2022-11-24T06:11:17.291Z,6.36
2022-11-24T06:12:16.328Z,6.34
2022-11-24T06:13:16.802Z,6.33
2022-11-24T06:14:16.665Z,6.30
2022-11-24T06:15:17.190Z,6.30
2022-11-24T06:16:16.680Z,6.36
2022-11-24T06:17:17.221Z,6.37
2022-11-24T06:18:16.725Z,6.30
2022-11-24T06:19:17.231Z,6.27
2022-11-24T06:20:16.714Z,6.26
2022-11-24T06:21:17.503Z,6.19
2022-11-24T06:22:17.268Z,6.19
2022-11-24T06:23:16.735Z,6.23
2022-11-24T06:24:17.197Z,6.17
2022-11-24T06:25:16.676Z,6.12
2022-11-24T06:26:17.184Z,6.09
2022-11-24T06:27:16.683Z,6.06
2022-11-24T06:28:17.166Z,6.00
2022-11-24T06:29:16.711Z,6.05
2022-11-24T06:30:17.196Z,5.95
2022-11-24T06:31:16.775Z,5.93
2022-11-24T06:32:17.257Z,5.92
2022-11-24T06:33:16.757Z,5.93
2022-11-24T06:34:17.225Z,5.91
2022-11-24T06:35:16.751Z,5.89
2022-11-24T06:36:17.252Z,5.86
2022-11-24T06:37:16.750Z,5.86
2022-11-24T06:38:21.448Z,5.81
2022-11-24T06:39:16.825Z,5.81
2022-11-24T06:40:16.305Z,5.82
2022-11-24T06:41:16.778Z,5.78
2022-11-24T06:42:16.574Z,5.82
2022-11-24T06:43:17.058Z,5.81
2022-11-24T06:44:16.577Z,5.75
2022-11-24T06:45:17.072Z,5.77
2022-11-24T06:46:16.636Z,5.72
2022-11-24T06:47:17.291Z,5.74
2022-11-24T06:48:16.761Z,5.72
2022-11-24T06:49:17.273Z,5.74
2022-11-24T06:50:16.777Z,5.74
2022-11-24T06:51:17.275Z,5.74
2022-11-24T06:52:16.457Z,5.72
2022-11-24T06:53:16.936Z,5.79
2022-11-24T06:54:16.403Z,5.81
2022-11-24T06:55:16.889Z,5.84
2022-11-24T06:56:16.955Z,5.88
2022-11-24T06:57:16.503Z,5.84
2022-11-24T06:58:16.994Z,5.88
2022-11-24T06:59:16.476Z,5.89
2022-11-24T07:00:16.968Z,5.86
2022-11-24T07:01:16.566Z,5.89
2022-11-24T07:02:16.800Z,5.89
2022-11-24T07:03:17.303Z,5.89
2022-11-24T07:04:16.862Z,5.93
2022-11-24T07:05:16.324Z,5.95
2022-11-24T07:06:16.814Z,5.98
2022-11-24T07:07:17.310Z,5.98
2022-11-24T07:08:17.892Z,5.99
2022-11-24T07:09:16.613Z,5.99
2022-11-24T07:10:17.108Z,6.00
2022-11-24T07:11:16.616Z,6.03
2022-11-24T07:12:16.905Z,6.05
2022-11-24T07:13:16.404Z,6.02
2022-11-24T07:14:16.875Z,6.06
2022-11-24T07:15:16.342Z,6.09
2022-11-24T07:16:16.846Z,6.10
2022-11-24T07:17:16.466Z,6.09
2022-11-24T07:18:16.949Z,6.09
2022-11-24T07:19:20.242Z,6.10
2022-11-24T07:20:16.404Z,6.10
2022-11-24T07:21:16.871Z,6.12
2022-11-24T07:22:16.560Z,6.09
2022-11-24T07:23:17.066Z,6.13
2022-11-24T07:24:16.548Z,6.14
2022-11-24T07:25:17.040Z,6.12
2022-11-24T07:26:16.509Z,6.14
2022-11-24T07:27:16.968Z,6.16
2022-11-24T07:28:16.430Z,6.14
2022-11-24T07:29:16.943Z,6.14
2022-11-24T07:30:16.421Z,6.13
2022-11-24T07:31:16.963Z,6.12
2022-11-24T07:32:16.497Z,6.12
2022-11-24T07:33:17.053Z,6.10
2022-11-24T07:34:16.561Z,6.10
2022-11-24T07:35:17.081Z,6.10
2022-11-24T07:36:16.614Z,6.05
2022-11-24T07:37:17.098Z,6.08
2022-11-24T07:38:16.566Z,6.03
2022-11-24T07:39:17.082Z,6.05
2022-11-24T07:40:16.558Z,5.93
2022-11-24T07:41:17.035Z,5.95
2022-11-24T07:42:16.462Z,5.96
2022-11-24T07:43:20.085Z,5.98
2022-11-24T07:44:16.862Z,5.98
2022-11-24T07:45:16.365Z,5.96
2022-11-24T07:46:16.924Z,5.95
2022-11-24T07:47:16.644Z,5.95
2022-11-24T07:48:17.134Z,6.00
2022-11-24T07:49:16.633Z,6.00
2022-11-24T07:50:17.177Z,5.98
2022-11-24T07:51:16.684Z,5.98
2022-11-24T07:52:17.011Z,6.00
2022-11-24T07:53:16.537Z,6.03
2022-11-24T07:54:17.025Z,6.08
2022-11-24T07:55:16.524Z,6.12
2022-11-24T07:56:17.043Z,6.16
2022-11-24T07:57:16.573Z,6.14
2022-11-24T07:58:17.046Z,6.24
2022-11-24T07:59:16.525Z,6.24
2022-11-24T08:00:17.002Z,6.27
2022-11-24T08:01:16.535Z,6.36
2022-11-24T08:02:16.994Z,6.36
2022-11-24T08:03:16.522Z,6.41
2022-11-24T08:04:17.169Z,6.45
2022-11-24T08:05:16.651Z,6.54
2022-11-24T08:06:27.621Z,6.54
2022-11-24T08:07:16.910Z,6.59
2022-11-24T08:08:16.473Z,6.63
2022-11-24T08:09:16.965Z,6.63
2022-11-24T08:10:16.449Z,6.63
2022-11-24T08:11:16.923Z,6.65
2022-11-24T08:12:16.918Z,6.68
2022-11-24T08:13:16.400Z,6.74
2022-11-24T08:14:16.868Z,6.72
2022-11-24T08:15:16.346Z,6.72
2022-11-24T08:16:16.924Z,6.75
2022-11-24T08:17:16.668Z,6.79
2022-11-24T08:18:17.168Z,6.79
2022-11-24T08:19:16.679Z,6.85
2022-11-24T08:20:17.203Z,6.84
2022-11-24T08:21:16.670Z,6.86
2022-11-24T08:22:17.233Z,6.94
2022-11-24T08:23:16.698Z,6.95
2022-11-24T08:24:17.179Z,7.00
2022-11-24T08:25:16.685Z,7.05
2022-11-24T08:26:17.215Z,7.09
2022-11-24T08:27:16.706Z,7.19
2022-11-24T08:28:17.160Z,7.19
2022-11-24T08:29:16.690Z,7.30
2022-11-24T08:30:17.193Z,7.37
2022-11-24T08:31:16.690Z,7.43
2022-11-24T08:32:21.876Z,7.45
2022-11-24T08:33:17.037Z,7.51
2022-11-24T08:34:16.535Z,7.61
2022-11-24T08:35:17.004Z,7.62
2022-11-24T08:36:16.524Z,7.71
2022-11-24T08:37:16.981Z,7.74
2022-11-24T08:38:16.466Z,7.74
2022-11-24T08:39:16.926Z,7.78
2022-11-24T08:40:16.394Z,7.78
2022-11-24T08:41:16.960Z,7.81
2022-11-24T08:42:16.307Z,7.85
2022-11-24T08:43:16.790Z,7.92
2022-11-24T08:44:16.328Z,7.92
2022-11-24T08:45:20.685Z,7.91
2022-11-24T08:46:16.471Z,7.95
2022-11-24T08:47:16.374Z,8.00
2022-11-24T08:48:17.070Z,8.03
2022-11-24T08:49:16.628Z,8.12
2022-11-24T08:50:17.116Z,8.09
2022-11-24T08:51:16.575Z,8.16
2022-11-24T08:52:16.321Z,8.17
2022-11-24T08:53:16.780Z,8.23
2022-11-24T08:54:17.291Z,8.27
2022-11-24T08:55:16.760Z,8.30
2022-11-24T08:56:17.515Z,8.30
2022-11-24T08:57:21.554Z,8.27
2022-11-24T08:58:16.514Z,8.31
2022-11-24T08:59:17.077Z,8.34
2022-11-24T09:00:16.719Z,8.37
2022-11-24T09:01:17.249Z,8.41
2022-11-24T09:02:16.905Z,8.45
2022-11-24T09:03:16.381Z,8.44
2022-11-24T09:04:16.898Z,8.40
2022-11-24T09:05:43.504Z,8.44
2022-11-24T09:06:17.027Z,8.34
2022-11-24T09:07:16.542Z,8.31
2022-11-24T09:08:17.121Z,8.31
2022-11-24T09:09:16.601Z,8.34
2022-11-24T09:10:17.126Z,8.37
2022-11-24T09:11:16.629Z,8.40
2022-11-24T09:12:16.445Z,8.41
2022-11-24T09:13:16.932Z,8.44
2022-11-24T09:14:16.418Z,8.41
2022-11-24T09:15:16.957Z,8.39
2022-11-24T09:16:16.554Z,8.40
2022-11-24T09:17:17.178Z,8.40
2022-11-24T09:18:16.714Z,8.40
2022-11-24T09:19:16.618Z,8.41
2022-11-24T09:20:17.097Z,8.39
2022-11-24T09:21:16.622Z,8.36
2022-11-24T09:22:16.891Z,8.34
2022-11-24T09:23:16.381Z,8.29
2022-11-24T09:24:16.884Z,8.29
2022-11-24T09:25:16.365Z,8.24
2022-11-24T09:26:16.854Z,8.21
2022-11-24T09:27:16.346Z,8.26
2022-11-24T09:28:16.803Z,8.21
2022-11-24T09:29:17.288Z,8.21
2022-11-24T09:30:16.766Z,8.17
2022-11-24T09:31:17.408Z,8.16
2022-11-24T09:32:17.128Z,8.17
2022-11-24T09:33:16.646Z,8.20
2022-11-24T09:34:17.154Z,8.19
2022-11-24T09:35:16.665Z,8.19
2022-11-24T09:36:17.146Z,8.16
2022-11-24T09:37:16.640Z,8.19
2022-11-24T09:38:17.141Z,8.21
2022-11-24T09:39:16.621Z,8.20
2022-11-24T09:40:17.076Z,8.24
2022-11-24T09:41:16.550Z,8.23
2022-11-24T09:42:16.439Z,8.26
2022-11-24T09:43:16.937Z,8.26
2022-11-24T09:44:16.425Z,8.31
2022-11-24T09:45:22.819Z,8.36
2022-11-24T09:46:16.509Z,8.33
2022-11-24T09:47:17.150Z,8.27
2022-11-24T09:48:16.678Z,8.30
2022-11-24T09:49:17.202Z,8.29
2022-11-24T09:50:16.730Z,8.29
2022-11-24T09:51:17.286Z,8.29
2022-11-24T09:52:17.006Z,8.30
2022-11-24T09:53:16.459Z,8.36
2022-11-24T09:54:16.917Z,8.33
2022-11-24T09:55:16.409Z,8.34
2022-11-24T09:56:16.925Z,8.36
2022-11-24T09:57:16.416Z,8.34
2022-11-24T09:58:16.929Z,8.37
2022-11-24T09:59:16.430Z,8.36
2022-11-24T10:00:16.914Z,8.33
2022-11-24T10:01:16.430Z,8.37
2022-11-24T10:02:16.883Z,8.31
2022-11-24T10:03:16.361Z,8.31
2022-11-24T10:04:16.906Z,8.34
2022-11-24T10:05:16.480Z,8.31
2022-11-24T10:06:16.989Z,8.36
2022-11-24T10:07:16.559Z,8.33
2022-11-24T10:08:17.156Z,8.36
2022-11-24T10:09:16.637Z,8.24
2022-11-24T10:10:21.320Z,8.26
2022-11-24T10:11:16.734Z,8.19
2022-11-24T10:12:16.930Z,8.14
2022-11-24T10:13:16.394Z,8.19
2022-11-24T10:14:16.866Z,8.08
2022-11-24T10:15:16.356Z,8.08
2022-11-24T10:16:16.925Z,8.03
2022-11-24T10:17:16.538Z,8.02
2022-11-24T10:18:17.374Z,7.96
2022-11-24T10:19:16.938Z,7.92
2022-11-24T10:20:16.450Z,7.88
2022-11-24T10:21:16.941Z,7.84
2022-11-24T10:22:16.674Z,7.77
2022-11-24T10:23:17.188Z,7.78
2022-11-24T10:24:16.662Z,7.81
2022-11-24T10:25:17.146Z,7.75
2022-11-24T10:26:16.620Z,7.75
2022-11-24T10:27:17.127Z,7.75
2022-11-24T10:28:16.634Z,7.75
2022-11-24T10:29:17.146Z,7.74
2022-11-24T10:30:16.651Z,7.68
2022-11-24T10:31:17.144Z,7.69
2022-11-24T10:32:16.675Z,7.68
2022-11-24T10:33:17.176Z,7.59
2022-11-24T10:34:16.701Z,7.61
2022-11-24T10:35:17.180Z,7.58
2022-11-24T10:36:16.649Z,7.62
2022-11-24T10:37:17.144Z,7.57
2022-11-24T10:38:16.670Z,7.55
2022-11-24T10:39:17.158Z,7.57
2022-11-24T10:40:33.304Z,7.59
2022-11-24T10:41:17.217Z,7.62
2022-11-24T10:42:16.634Z,7.55
2022-11-24T10:43:17.096Z,7.55
2022-11-24T10:44:16.563Z,7.53
2022-11-24T10:45:17.034Z,7.48
2022-11-24T10:46:16.611Z,7.48
2022-11-24T10:47:17.215Z,7.45
2022-11-24T10:48:16.740Z,7.47
2022-11-24T10:49:17.226Z,7.43
2022-11-24T10:50:16.734Z,7.47
2022-11-24T10:51:17.292Z,7.43
2022-11-24T10:52:16.956Z,7.43
2022-11-24T10:53:16.442Z,7.45
2022-11-24T10:54:16.905Z,7.44
2022-11-24T10:55:16.388Z,7.43
2022-11-24T10:56:16.839Z,7.47
2022-11-24T10:57:17.303Z,7.47
2022-11-24T10:58:16.789Z,7.45
2022-11-24T10:59:17.306Z,7.45
2022-11-24T11:00:16.812Z,7.51
2022-11-24T11:01:17.558Z,7.48
2022-11-24T11:02:16.474Z,7.50
2022-11-24T11:03:17.073Z,7.48
2022-11-24T11:04:16.555Z,7.54
2022-11-24T11:05:17.025Z,7.54
2022-11-24T11:06:16.564Z,7.59
2022-11-24T11:07:17.078Z,7.57
2022-11-24T11:08:16.665Z,7.57
2022-11-24T11:09:17.158Z,7.61
2022-11-24T11:10:16.690Z,7.65
2022-11-24T11:11:16.349Z,7.61
2022-11-24T11:12:43.157Z,7.64
2022-11-24T11:13:16.552Z,7.64
2022-11-24T11:14:17.051Z,7.68
2022-11-24T11:15:16.556Z,7.62
2022-11-24T11:16:17.224Z,7.65
2022-11-24T11:17:16.873Z,7.61
2022-11-24T11:18:16.369Z,7.61
2022-11-24T11:19:47.167Z,7.61
2022-11-24T11:20:16.400Z,7.61
2022-11-24T11:21:16.878Z,7.61
2022-11-24T11:22:16.425Z,7.62
2022-11-24T11:23:16.946Z,7.64
2022-11-24T11:24:16.453Z,7.71
2022-11-24T11:25:16.940Z,7.71
2022-11-24T11:26:16.444Z,7.72
2022-11-24T11:27:16.926Z,7.80
2022-11-24T11:28:18.085Z,7.81
2022-11-24T11:31:19.554Z,7.84
2022-11-24T11:34:23.699Z,7.92
2022-11-24T11:35:16.953Z,7.88
2022-11-24T11:36:16.446Z,7.86
2022-11-24T11:37:16.966Z,7.91
2022-11-24T11:38:16.450Z,7.95
2022-11-24T11:39:16.953Z,7.91
2022-11-24T11:40:16.443Z,7.99
2022-11-24T11:41:16.919Z,7.95
2022-11-24T11:42:31.709Z,7.99
2022-11-24T11:43:17.302Z,8.02
2022-11-24T11:44:16.774Z,8.13
2022-11-24T11:45:17.418Z,8.20
2022-11-24T11:46:17.478Z,8.31
2022-11-24T11:47:16.431Z,8.29
2022-11-24T11:48:17.089Z,8.34
2022-11-24T11:49:16.580Z,8.43
2022-11-24T11:50:17.144Z,8.47
2022-11-24T11:51:23.135Z,8.48
2022-11-24T11:52:16.368Z,8.48
2022-11-24T11:53:16.883Z,8.43
2022-11-24T11:54:16.344Z,8.47
2022-11-24T11:55:16.878Z,8.45
2022-11-24T11:56:16.348Z,8.47
2022-11-24T11:57:16.809Z,8.51
2022-11-24T11:58:17.267Z,8.45
2022-11-24T11:59:16.806Z,8.52
2022-11-24T12:00:17.300Z,8.54
2022-11-24T12:01:16.778Z,8.54
2022-11-24T12:02:17.083Z,8.51
2022-11-24T12:03:16.835Z,8.48
2022-11-24T12:04:16.702Z,8.54
2022-11-24T12:05:16.344Z,8.48
2022-11-24T12:06:16.969Z,8.55
2022-11-24T12:07:16.689Z,8.52
2022-11-24T12:08:20.908Z,8.59
2022-11-24T12:09:21.297Z,8.59
2022-11-24T12:10:17.208Z,8.62
2022-11-24T12:11:16.838Z,8.64
2022-11-24T12:12:16.414Z,8.62
2022-11-24T12:13:17.064Z,8.71
2022-11-24T12:14:16.647Z,8.72
2022-11-24T12:15:17.300Z,8.71
2022-11-24T12:16:16.924Z,8.74
2022-11-24T12:17:16.810Z,8.69
2022-11-24T12:18:33.410Z,8.67
2022-11-24T12:19:16.916Z,8.69
2022-11-24T12:20:16.513Z,8.64
2022-11-24T12:21:19.976Z,8.58
2022-11-24T12:22:17.066Z,8.58
2022-11-24T12:23:16.548Z,8.59
2022-11-24T12:24:17.158Z,8.55
2022-11-24T12:25:16.747Z,8.52
2022-11-24T12:26:17.286Z,8.52
2022-11-24T12:27:21.045Z,8.57
2022-11-24T12:28:16.709Z,8.52
2022-11-24T12:29:17.195Z,8.51
2022-11-24T12:30:16.705Z,8.50
2022-11-24T12:31:17.273Z,8.52
2022-11-24T12:32:16.713Z,8.54
2022-11-24T12:33:17.225Z,8.59
2022-11-24T12:34:16.727Z,8.61
2022-11-24T12:35:16.311Z,8.72
2022-11-24T12:36:16.810Z,8.82
2022-11-24T12:37:17.297Z,8.84
2022-11-24T12:38:16.760Z,8.86
2022-11-24T12:39:17.243Z,8.95
2022-11-24T12:40:16.706Z,8.92
2022-11-24T12:41:39.549Z,8.82
2022-11-24T12:42:16.697Z,8.84
2022-11-24T12:43:17.181Z,9.00
2022-11-24T12:44:16.676Z,9.09
2022-11-24T12:45:17.318Z,9.13
2022-11-24T12:46:17.398Z,9.15
2022-11-24T12:47:17.304Z,9.20
2022-11-24T12:48:16.825Z,9.27
2022-11-24T12:49:16.316Z,9.23
2022-11-24T12:50:16.799Z,9.29
2022-11-24T12:51:17.312Z,9.17
2022-11-24T12:52:16.966Z,9.22
2022-11-24T12:53:16.463Z,9.31
2022-11-24T12:54:16.934Z,9.26
2022-11-24T12:55:16.443Z,9.24
2022-11-24T12:56:16.907Z,9.12
2022-11-24T12:57:16.423Z,9.06
2022-11-24T12:58:16.899Z,9.05
2022-11-24T12:59:16.415Z,9.05
2022-11-24T13:00:16.899Z,8.96
2022-11-24T13:01:16.853Z,8.98
2022-11-24T13:02:16.425Z,8.88
2022-11-24T13:03:17.204Z,8.91
2022-11-24T13:04:16.922Z,8.91
2022-11-24T13:05:16.436Z,8.91
2022-11-24T13:06:16.925Z,8.91
2022-11-24T13:07:16.476Z,8.89
2022-11-24T13:08:17.068Z,8.88
2022-11-24T13:09:16.544Z,8.88
2022-11-24T13:10:17.208Z,8.92
2022-11-24T13:11:16.809Z,8.88
2022-11-24T13:12:16.339Z,8.85
2022-11-24T13:13:16.811Z,8.84
2022-11-24T13:14:17.311Z,8.85
2022-11-24T13:15:36.382Z,8.84
2022-11-24T13:16:40.958Z,8.88
2022-11-24T13:17:39.520Z,8.85
2022-11-24T13:18:16.645Z,8.95
2022-11-24T13:19:17.234Z,8.92
2022-11-24T13:20:16.758Z,8.94
2022-11-24T13:21:17.285Z,9.02
2022-11-24T13:22:16.724Z,9.02